sensor_id;sensor_type;location;lat;lon;timestamp;P1;durP1;ratioP1;P2;durP2;ratioP2
44987;SDS011;35735;52.226;21.254;2022-09-30T00:02:40;79.18;;;47.33;;
44987;SDS011;35735;52.226;21.254;2022-09-30T00:07:41;72.53;;;47.00;;
44987;SDS011;35735;52.226;21.254;2022-09-30T00:12:41;75.40;;;47.08;;
44987;SDS011;35735;52.226;21.254;2022-09-30T00:17:42;68.00;;;42.50;;
44987;SDS011;35735;52.226;21.254;2022-09-30T00:22:42;72.95;;;43.72;;
44987;SDS011;35735;52.226;21.254;2022-09-30T00:27:43;67.68;;;41.42;;
44987;SDS011;35735;52.226;21.254;2022-09-30T00:32:43;63.17;;;40.45;;
44987;SDS011;35735;52.226;21.254;2022-09-30T00:37:44;67.32;;;40.12;;
44987;SDS011;35735;52.226;21.254;2022-09-30T00:42:44;59.38;;;38.35;;
44987;SDS011;35735;52.226;21.254;2022-09-30T00:53:22;57.80;;;35.72;;
44987;SDS011;35735;52.226;21.254;2022-09-30T00:59:13;56.80;;;36.95;;
44987;SDS011;35735;52.226;21.254;2022-09-30T01:04:18;61.67;;;35.90;;
44987;SDS011;35735;52.226;21.254;2022-09-30T01:09:21;52.17;;;35.42;;
44987;SDS011;35735;52.226;21.254;2022-09-30T01:14:22;53.65;;;34.88;;
44987;SDS011;35735;52.226;21.254;2022-09-30T01:19:47;52.13;;;33.88;;
44987;SDS011;35735;52.226;21.254;2022-09-30T01:25:10;52.08;;;33.45;;
44987;SDS011;35735;52.226;21.254;2022-09-30T01:36:15;54.25;;;33.50;;
44987;SDS011;35735;52.226;21.254;2022-09-30T01:41:31;48.97;;;33.08;;
44987;SDS011;35735;52.226;21.254;2022-09-30T01:46:47;48.63;;;31.60;;
44987;SDS011;35735;52.226;21.254;2022-09-30T01:52:00;49.88;;;31.67;;
44987;SDS011;35735;52.226;21.254;2022-09-30T01:57:09;55.00;;;33.35;;
44987;SDS011;35735;52.226;21.254;2022-09-30T02:02:21;49.05;;;33.30;;
44987;SDS011;35735;52.226;21.254;2022-09-30T02:07:30;53.30;;;34.78;;
44987;SDS011;35735;52.226;21.254;2022-09-30T02:12:37;48.60;;;32.75;;
44987;SDS011;35735;52.226;21.254;2022-09-30T02:17:46;54.72;;;34.42;;
44987;SDS011;35735;52.226;21.254;2022-09-30T02:22:58;50.72;;;32.53;;
44987;SDS011;35735;52.226;21.254;2022-09-30T02:28:05;50.90;;;34.33;;
44987;SDS011;35735;52.226;21.254;2022-09-30T02:33:11;52.25;;;34.90;;
44987;SDS011;35735;52.226;21.254;2022-09-30T02:38:20;54.75;;;34.15;;
44987;SDS011;35735;52.226;21.254;2022-09-30T02:43:30;52.13;;;34.45;;
44987;SDS011;35735;52.226;21.254;2022-09-30T02:54:17;58.03;;;36.55;;
44987;SDS011;35735;52.226;21.254;2022-09-30T02:59:28;57.50;;;36.95;;
44987;SDS011;35735;52.226;21.254;2022-09-30T03:04:30;54.92;;;36.10;;
44987;SDS011;35735;52.226;21.254;2022-09-30T03:09:34;54.30;;;36.03;;
44987;SDS011;35735;52.226;21.254;2022-09-30T03:14:47;55.50;;;35.65;;
44987;SDS011;35735;52.226;21.254;2022-09-30T03:20:18;55.97;;;35.63;;
44987;SDS011;35735;52.226;21.254;2022-09-30T03:25:49;52.25;;;35.55;;
44987;SDS011;35735;52.226;21.254;2022-09-30T03:31:23;52.10;;;34.22;;
44987;SDS011;35735;52.226;21.254;2022-09-30T03:36:37;56.28;;;35.20;;
44987;SDS011;35735;52.226;21.254;2022-09-30T03:41:57;53.33;;;35.08;;
44987;SDS011;35735;52.226;21.254;2022-09-30T03:47:07;59.85;;;36.20;;
44987;SDS011;35735;52.226;21.254;2022-09-30T03:52:11;52.83;;;34.28;;
44987;SDS011;35735;52.226;21.254;2022-09-30T03:57:13;61.30;;;38.95;;
44987;SDS011;35735;52.226;21.254;2022-09-30T04:02:14;58.00;;;35.72;;
44987;SDS011;35735;52.226;21.254;2022-09-30T04:07:14;59.13;;;35.90;;
44987;SDS011;35735;52.226;21.254;2022-09-30T04:12:15;57.85;;;36.75;;
44987;SDS011;35735;52.226;21.254;2022-09-30T04:17:15;59.67;;;37.28;;
44987;SDS011;35735;52.226;21.254;2022-09-30T04:22:16;60.65;;;36.60;;
44987;SDS011;35735;52.226;21.254;2022-09-30T04:27:16;55.80;;;36.78;;
44987;SDS011;35735;52.226;21.254;2022-09-30T04:32:17;67.78;;;38.88;;
44987;SDS011;35735;52.226;21.254;2022-09-30T04:37:18;67.53;;;38.97;;
44987;SDS011;35735;52.226;21.254;2022-09-30T04:42:18;66.55;;;39.25;;
44987;SDS011;35735;52.226;21.254;2022-09-30T04:47:19;65.05;;;39.92;;
44987;SDS011;35735;52.226;21.254;2022-09-30T04:52:19;74.72;;;41.33;;
44987;SDS011;35735;52.226;21.254;2022-09-30T04:57:20;69.03;;;41.20;;
44987;SDS011;35735;52.226;21.254;2022-09-30T05:02:20;69.10;;;42.30;;
44987;SDS011;35735;52.226;21.254;2022-09-30T05:07:21;76.43;;;42.67;;
44987;SDS011;35735;52.226;21.254;2022-09-30T05:12:22;78.07;;;43.40;;
44987;SDS011;35735;52.226;21.254;2022-09-30T05:17:22;70.28;;;42.88;;
44987;SDS011;35735;52.226;21.254;2022-09-30T05:22:23;68.40;;;43.78;;
44987;SDS011;35735;52.226;21.254;2022-09-30T05:27:23;70.05;;;41.92;;
44987;SDS011;35735;52.226;21.254;2022-09-30T05:32:24;69.10;;;42.78;;
44987;SDS011;35735;52.226;21.254;2022-09-30T05:37:25;70.45;;;42.42;;
44987;SDS011;35735;52.226;21.254;2022-09-30T05:42:26;65.28;;;42.28;;
44987;SDS011;35735;52.226;21.254;2022-09-30T05:47:26;60.78;;;39.90;;
44987;SDS011;35735;52.226;21.254;2022-09-30T05:52:27;61.08;;;40.22;;
44987;SDS011;35735;52.226;21.254;2022-09-30T05:57:28;56.67;;;36.05;;
44987;SDS011;35735;52.226;21.254;2022-09-30T06:02:28;54.20;;;35.45;;
44987;SDS011;35735;52.226;21.254;2022-09-30T06:07:29;51.80;;;35.15;;
44987;SDS011;35735;52.226;21.254;2022-09-30T06:12:30;51.78;;;34.65;;
44987;SDS011;35735;52.226;21.254;2022-09-30T06:17:30;48.95;;;33.78;;
44987;SDS011;35735;52.226;21.254;2022-09-30T06:22:31;50.70;;;35.30;;
44987;SDS011;35735;52.226;21.254;2022-09-30T06:27:32;48.67;;;32.13;;
44987;SDS011;35735;52.226;21.254;2022-09-30T06:32:33;45.85;;;30.23;;
44987;SDS011;35735;52.226;21.254;2022-09-30T06:37:34;46.17;;;30.62;;
44987;SDS011;35735;52.226;21.254;2022-09-30T06:42:34;42.95;;;29.33;;
44987;SDS011;35735;52.226;21.254;2022-09-30T06:47:35;40.50;;;28.23;;
44987;SDS011;35735;52.226;21.254;2022-09-30T06:52:35;37.33;;;28.17;;
44987;SDS011;35735;52.226;21.254;2022-09-30T06:57:36;41.78;;;27.90;;
44987;SDS011;35735;52.226;21.254;2022-09-30T07:02:36;38.05;;;27.05;;
44987;SDS011;35735;52.226;21.254;2022-09-30T07:07:37;39.42;;;24.23;;
44987;SDS011;35735;52.226;21.254;2022-09-30T07:12:37;52.08;;;23.90;;
44987;SDS011;35735;52.226;21.254;2022-09-30T07:17:38;32.45;;;20.37;;
44987;SDS011;35735;52.226;21.254;2022-09-30T07:22:38;29.30;;;19.12;;
44987;SDS011;35735;52.226;21.254;2022-09-30T07:27:39;29.23;;;19.40;;
44987;SDS011;35735;52.226;21.254;2022-09-30T07:32:40;25.80;;;17.50;;
44987;SDS011;35735;52.226;21.254;2022-09-30T07:37:40;19.35;;;15.20;;
44987;SDS011;35735;52.226;21.254;2022-09-30T07:42:41;21.75;;;15.00;;
44987;SDS011;35735;52.226;21.254;2022-09-30T07:47:41;17.00;;;12.30;;
44987;SDS011;35735;52.226;21.254;2022-09-30T07:52:42;16.77;;;12.30;;
44987;SDS011;35735;52.226;21.254;2022-09-30T07:57:42;12.27;;;10.98;;
44987;SDS011;35735;52.226;21.254;2022-09-30T08:02:43;15.07;;;11.25;;
44987;SDS011;35735;52.226;21.254;2022-09-30T08:07:44;15.32;;;11.43;;
44987;SDS011;35735;52.226;21.254;2022-09-30T08:12:44;12.88;;;11.02;;
44987;SDS011;35735;52.226;21.254;2022-09-30T08:17:45;14.75;;;11.68;;
44987;SDS011;35735;52.226;21.254;2022-09-30T08:22:45;13.05;;;11.35;;
44987;SDS011;35735;52.226;21.254;2022-09-30T08:27:46;13.98;;;11.40;;
44987;SDS011;35735;52.226;21.254;2022-09-30T08:32:46;13.48;;;11.70;;
44987;SDS011;35735;52.226;21.254;2022-09-30T08:37:47;14.40;;;11.18;;
44987;SDS011;35735;52.226;21.254;2022-09-30T08:42:57;16.10;;;11.85;;
44987;SDS011;35735;52.226;21.254;2022-09-30T08:48:22;13.05;;;11.65;;
44987;SDS011;35735;52.226;21.254;2022-09-30T08:53:46;14.52;;;11.30;;
44987;SDS011;35735;52.226;21.254;2022-09-30T08:58:47;13.23;;;10.50;;
44987;SDS011;35735;52.226;21.254;2022-09-30T09:03:52;14.77;;;9.88;;
44987;SDS011;35735;52.226;21.254;2022-09-30T09:09:02;12.95;;;10.63;;
44987;SDS011;35735;52.226;21.254;2022-09-30T09:20:01;12.40;;;10.70;;
44987;SDS011;35735;52.226;21.254;2022-09-30T09:25:13;12.48;;;10.07;;
44987;SDS011;35735;52.226;21.254;2022-09-30T09:30:20;12.07;;;8.60;;
44987;SDS011;35735;52.226;21.254;2022-09-30T09:35:35;11.57;;;9.32;;
44987;SDS011;35735;52.226;21.254;2022-09-30T09:51:25;7.80;;;6.75;;
44987;SDS011;35735;52.226;21.254;2022-09-30T09:56:32;9.00;;;7.32;;
44987;SDS011;35735;52.226;21.254;2022-09-30T10:01:34;8.25;;;7.10;;
44987;SDS011;35735;52.226;21.254;2022-09-30T10:06:45;8.70;;;6.72;;
44987;SDS011;35735;52.226;21.254;2022-09-30T10:11:48;9.55;;;6.90;;
44987;SDS011;35735;52.226;21.254;2022-09-30T10:16:48;8.82;;;6.40;;
44987;SDS011;35735;52.226;21.254;2022-09-30T10:21:49;6.50;;;5.90;;
44987;SDS011;35735;52.226;21.254;2022-09-30T10:26:49;8.25;;;5.82;;
44987;SDS011;35735;52.226;21.254;2022-09-30T10:31:50;8.55;;;6.68;;
44987;SDS011;35735;52.226;21.254;2022-09-30T10:36:51;8.38;;;6.85;;
44987;SDS011;35735;52.226;21.254;2022-09-30T10:42:00;9.00;;;6.97;;
44987;SDS011;35735;52.226;21.254;2022-09-30T10:47:04;9.40;;;8.13;;
44987;SDS011;35735;52.226;21.254;2022-09-30T10:52:04;9.77;;;8.15;;
44987;SDS011;35735;52.226;21.254;2022-09-30T10:57:13;8.80;;;7.22;;
44987;SDS011;35735;52.226;21.254;2022-09-30T11:02:24;7.90;;;7.10;;
44987;SDS011;35735;52.226;21.254;2022-09-30T11:07:32;9.98;;;7.82;;
44987;SDS011;35735;52.226;21.254;2022-09-30T11:12:48;9.25;;;7.22;;
44987;SDS011;35735;52.226;21.254;2022-09-30T11:18:20;8.90;;;7.55;;
44987;SDS011;35735;52.226;21.254;2022-09-30T11:23:36;8.65;;;6.80;;
44987;SDS011;35735;52.226;21.254;2022-09-30T11:39:37;7.35;;;6.60;;
44987;SDS011;35735;52.226;21.254;2022-09-30T11:45:08;9.88;;;6.05;;
44987;SDS011;35735;52.226;21.254;2022-09-30T11:50:44;8.23;;;6.05;;
44987;SDS011;35735;52.226;21.254;2022-09-30T11:56:07;6.43;;;5.40;;
44987;SDS011;35735;52.226;21.254;2022-09-30T12:01:45;7.80;;;4.95;;
44987;SDS011;35735;52.226;21.254;2022-09-30T12:06:51;4.97;;;4.47;;
44987;SDS011;35735;52.226;21.254;2022-09-30T12:12:02;6.90;;;5.43;;
44987;SDS011;35735;52.226;21.254;2022-09-30T12:17:14;5.18;;;4.68;;
44987;SDS011;35735;52.226;21.254;2022-09-30T12:22:31;6.97;;;4.80;;
44987;SDS011;35735;52.226;21.254;2022-09-30T12:27:41;4.65;;;4.25;;
44987;SDS011;35735;52.226;21.254;2022-09-30T12:32:58;5.20;;;4.20;;
44987;SDS011;35735;52.226;21.254;2022-09-30T12:49:29;9.10;;;4.32;;
44987;SDS011;35735;52.226;21.254;2022-09-30T12:54:35;5.60;;;3.90;;
44987;SDS011;35735;52.226;21.254;2022-09-30T12:59:48;6.10;;;3.72;;
44987;SDS011;35735;52.226;21.254;2022-09-30T13:04:53;5.85;;;4.10;;
44987;SDS011;35735;52.226;21.254;2022-09-30T13:09:54;4.32;;;3.60;;
44987;SDS011;35735;52.226;21.254;2022-09-30T13:25:52;5.43;;;4.72;;
44987;SDS011;35735;52.226;21.254;2022-09-30T13:31:09;5.90;;;5.30;;
44987;SDS011;35735;52.226;21.254;2022-09-30T13:36:16;6.30;;;5.10;;
44987;SDS011;35735;52.226;21.254;2022-09-30T13:41:55;6.32;;;4.65;;
44987;SDS011;35735;52.226;21.254;2022-09-30T13:47:26;5.78;;;5.18;;
44987;SDS011;35735;52.226;21.254;2022-09-30T13:52:33;7.53;;;5.05;;
44987;SDS011;35735;52.226;21.254;2022-09-30T13:57:46;6.22;;;5.62;;
44987;SDS011;35735;52.226;21.254;2022-09-30T14:19:57;8.63;;;7.10;;
44987;SDS011;35735;52.226;21.254;2022-09-30T14:25:13;10.55;;;7.72;;
44987;SDS011;35735;52.226;21.254;2022-09-30T14:30:17;14.73;;;9.55;;
44987;SDS011;35735;52.226;21.254;2022-09-30T14:35:25;16.33;;;10.80;;
44987;SDS011;35735;52.226;21.254;2022-09-30T14:40:29;13.73;;;9.80;;
44987;SDS011;35735;52.226;21.254;2022-09-30T14:45:34;13.35;;;11.25;;
44987;SDS011;35735;52.226;21.254;2022-09-30T14:50:43;13.23;;;8.93;;
44987;SDS011;35735;52.226;21.254;2022-09-30T14:55:55;10.63;;;8.98;;
44987;SDS011;35735;52.226;21.254;2022-09-30T15:06:29;10.38;;;9.27;;
44987;SDS011;35735;52.226;21.254;2022-09-30T15:11:33;8.57;;;7.68;;
44987;SDS011;35735;52.226;21.254;2022-09-30T15:16:42;11.32;;;9.10;;
44987;SDS011;35735;52.226;21.254;2022-09-30T15:21:52;9.40;;;8.38;;
44987;SDS011;35735;52.226;21.254;2022-09-30T15:26:55;9.52;;;8.07;;
44987;SDS011;35735;52.226;21.254;2022-09-30T15:32:01;9.57;;;8.40;;
44987;SDS011;35735;52.226;21.254;2022-09-30T15:37:19;18.45;;;9.70;;
44987;SDS011;35735;52.226;21.254;2022-09-30T15:42:32;15.88;;;11.77;;
44987;SDS011;35735;52.226;21.254;2022-09-30T15:47:51;14.55;;;13.02;;
44987;SDS011;35735;52.226;21.254;2022-09-30T15:53:02;21.40;;;16.58;;
44987;SDS011;35735;52.226;21.254;2022-09-30T15:58:30;17.05;;;13.45;;
44987;SDS011;35735;52.226;21.254;2022-09-30T16:03:59;14.13;;;12.15;;
44987;SDS011;35735;52.226;21.254;2022-09-30T16:09:06;14.75;;;11.43;;
44987;SDS011;35735;52.226;21.254;2022-09-30T16:14:21;14.27;;;12.00;;
44987;SDS011;35735;52.226;21.254;2022-09-30T16:19:32;26.42;;;23.02;;
44987;SDS011;35735;52.226;21.254;2022-09-30T16:29:33;12.70;;;10.67;;
44987;SDS011;35735;52.226;21.254;2022-09-30T16:34:34;17.23;;;13.10;;
44987;SDS011;35735;52.226;21.254;2022-09-30T16:39:36;21.00;;;15.20;;
44987;SDS011;35735;52.226;21.254;2022-09-30T16:44:37;21.10;;;18.10;;
44987;SDS011;35735;52.226;21.254;2022-09-30T16:49:37;26.00;;;19.15;;
44987;SDS011;35735;52.226;21.254;2022-09-30T16:54:38;25.02;;;17.67;;
44987;SDS011;35735;52.226;21.254;2022-09-30T16:59:40;20.77;;;15.98;;
44987;SDS011;35735;52.226;21.254;2022-09-30T17:04:40;21.90;;;16.55;;
44987;SDS011;35735;52.226;21.254;2022-09-30T17:09:41;23.52;;;18.02;;
44987;SDS011;35735;52.226;21.254;2022-09-30T17:14:42;25.80;;;18.12;;
44987;SDS011;35735;52.226;21.254;2022-09-30T17:19:43;29.30;;;21.77;;
44987;SDS011;35735;52.226;21.254;2022-09-30T17:24:43;28.95;;;21.40;;
44987;SDS011;35735;52.226;21.254;2022-09-30T17:29:44;28.55;;;24.02;;
44987;SDS011;35735;52.226;21.254;2022-09-30T17:34:44;38.50;;;32.05;;
44987;SDS011;35735;52.226;21.254;2022-09-30T17:39:45;27.95;;;18.27;;
44987;SDS011;35735;52.226;21.254;2022-09-30T17:44:46;28.20;;;20.65;;
44987;SDS011;35735;52.226;21.254;2022-09-30T17:49:46;28.75;;;21.00;;
44987;SDS011;35735;52.226;21.254;2022-09-30T17:54:47;22.37;;;17.67;;
44987;SDS011;35735;52.226;21.254;2022-09-30T17:59:47;24.98;;;18.85;;
44987;SDS011;35735;52.226;21.254;2022-09-30T18:04:48;27.67;;;19.67;;
44987;SDS011;35735;52.226;21.254;2022-09-30T18:09:48;36.50;;;24.08;;
44987;SDS011;35735;52.226;21.254;2022-09-30T18:14:49;31.77;;;23.30;;
44987;SDS011;35735;52.226;21.254;2022-09-30T18:19:51;32.08;;;22.45;;
44987;SDS011;35735;52.226;21.254;2022-09-30T18:24:52;32.42;;;22.73;;
44987;SDS011;35735;52.226;21.254;2022-09-30T18:29:52;29.42;;;23.30;;
44987;SDS011;35735;52.226;21.254;2022-09-30T18:34:54;30.88;;;22.40;;
44987;SDS011;35735;52.226;21.254;2022-09-30T18:39:55;34.50;;;26.20;;
44987;SDS011;35735;52.226;21.254;2022-09-30T18:44:55;33.72;;;22.98;;
44987;SDS011;35735;52.226;21.254;2022-09-30T18:49:56;28.17;;;20.52;;
44987;SDS011;35735;52.226;21.254;2022-09-30T18:54:57;36.75;;;23.38;;
44987;SDS011;35735;52.226;21.254;2022-09-30T18:59:57;32.55;;;23.12;;
44987;SDS011;35735;52.226;21.254;2022-09-30T19:04:58;32.80;;;22.80;;
44987;SDS011;35735;52.226;21.254;2022-09-30T19:09:58;35.70;;;23.85;;
44987;SDS011;35735;52.226;21.254;2022-09-30T19:15:00;38.95;;;25.10;;
44987;SDS011;35735;52.226;21.254;2022-09-30T19:20:09;41.28;;;28.35;;
44987;SDS011;35735;52.226;21.254;2022-09-30T19:25:11;40.28;;;28.23;;
44987;SDS011;35735;52.226;21.254;2022-09-30T19:30:12;45.35;;;30.37;;
44987;SDS011;35735;52.226;21.254;2022-09-30T19:35:13;39.08;;;28.45;;
44987;SDS011;35735;52.226;21.254;2022-09-30T19:40:14;41.72;;;29.10;;
44987;SDS011;35735;52.226;21.254;2022-09-30T19:45:14;53.10;;;34.67;;
44987;SDS011;35735;52.226;21.254;2022-09-30T19:50:15;44.78;;;34.47;;
44987;SDS011;35735;52.226;21.254;2022-09-30T19:55:16;46.63;;;32.60;;
44987;SDS011;35735;52.226;21.254;2022-09-30T20:00:17;47.28;;;34.50;;
44987;SDS011;35735;52.226;21.254;2022-09-30T20:05:17;50.08;;;36.03;;
44987;SDS011;35735;52.226;21.254;2022-09-30T20:10:18;44.58;;;32.40;;
44987;SDS011;35735;52.226;21.254;2022-09-30T20:15:18;41.78;;;31.90;;
44987;SDS011;35735;52.226;21.254;2022-09-30T20:20:19;43.60;;;31.40;;
44987;SDS011;35735;52.226;21.254;2022-09-30T20:25:19;43.13;;;31.75;;
44987;SDS011;35735;52.226;21.254;2022-09-30T20:30:20;44.92;;;33.08;;
44987;SDS011;35735;52.226;21.254;2022-09-30T20:35:21;46.05;;;34.20;;
44987;SDS011;35735;52.226;21.254;2022-09-30T20:40:21;46.90;;;34.97;;
44987;SDS011;35735;52.226;21.254;2022-09-30T20:45:22;48.67;;;34.90;;
44987;SDS011;35735;52.226;21.254;2022-09-30T20:50:22;50.03;;;35.13;;
44987;SDS011;35735;52.226;21.254;2022-09-30T20:55:23;47.70;;;34.47;;
44987;SDS011;35735;52.226;21.254;2022-09-30T21:00:24;48.72;;;34.50;;
44987;SDS011;35735;52.226;21.254;2022-09-30T21:05:24;43.00;;;33.33;;
44987;SDS011;35735;52.226;21.254;2022-09-30T21:10:25;50.35;;;33.40;;
44987;SDS011;35735;52.226;21.254;2022-09-30T21:15:26;44.53;;;34.13;;
44987;SDS011;35735;52.226;21.254;2022-09-30T21:20:27;49.03;;;35.38;;
44987;SDS011;35735;52.226;21.254;2022-09-30T21:25:28;46.88;;;34.50;;
44987;SDS011;35735;52.226;21.254;2022-09-30T21:30:29;66.03;;;42.80;;
44987;SDS011;35735;52.226;21.254;2022-09-30T21:35:30;54.80;;;39.25;;
44987;SDS011;35735;52.226;21.254;2022-09-30T21:40:31;55.65;;;38.42;;
44987;SDS011;35735;52.226;21.254;2022-09-30T21:45:31;48.97;;;33.58;;
44987;SDS011;35735;52.226;21.254;2022-09-30T21:50:35;52.67;;;35.97;;
44987;SDS011;35735;52.226;21.254;2022-09-30T21:55:36;49.70;;;34.35;;
44987;SDS011;35735;52.226;21.254;2022-09-30T22:00:37;47.33;;;34.25;;
44987;SDS011;35735;52.226;21.254;2022-09-30T22:05:37;49.22;;;35.13;;
44987;SDS011;35735;52.226;21.254;2022-09-30T22:10:41;48.25;;;34.25;;
44987;SDS011;35735;52.226;21.254;2022-09-30T22:15:42;50.03;;;35.10;;
44987;SDS011;35735;52.226;21.254;2022-09-30T22:20:45;51.40;;;36.53;;
44987;SDS011;35735;52.226;21.254;2022-09-30T22:25:46;48.38;;;33.17;;
44987;SDS011;35735;52.226;21.254;2022-09-30T22:30:47;41.05;;;30.70;;
44987;SDS011;35735;52.226;21.254;2022-09-30T22:35:47;44.35;;;31.90;;
44987;SDS011;35735;52.226;21.254;2022-09-30T22:40:50;42.72;;;31.50;;
44987;SDS011;35735;52.226;21.254;2022-09-30T22:51:12;47.00;;;31.87;;
44987;SDS011;35735;52.226;21.254;2022-09-30T22:56:14;43.28;;;31.75;;
44987;SDS011;35735;52.226;21.254;2022-09-30T23:01:15;42.92;;;31.95;;
44987;SDS011;35735;52.226;21.254;2022-09-30T23:06:15;42.30;;;30.92;;
44987;SDS011;35735;52.226;21.254;2022-09-30T23:11:17;41.65;;;30.45;;
44987;SDS011;35735;52.226;21.254;2022-09-30T23:16:18;41.35;;;29.67;;
44987;SDS011;35735;52.226;21.254;2022-09-30T23:21:18;38.05;;;27.92;;
44987;SDS011;35735;52.226;21.254;2022-09-30T23:26:20;35.92;;;27.65;;
44987;SDS011;35735;52.226;21.254;2022-09-30T23:31:23;35.85;;;27.35;;
44987;SDS011;35735;52.226;21.254;2022-09-30T23:36:25;36.45;;;25.85;;
44987;SDS011;35735;52.226;21.254;2022-09-30T23:41:29;37.92;;;27.35;;
44987;SDS011;35735;52.226;21.254;2022-09-30T23:46:31;38.38;;;27.37;;
44987;SDS011;35735;52.226;21.254;2022-09-30T23:51:31;34.55;;;25.50;;
44987;SDS011;35735;52.226;21.254;2022-09-30T23:56:32;35.10;;;26.98;;
